ADDS METAR Data INFO
IDs: Format: Raw Decoded Include TAF

Data at: 2019 UTC 20 Jul 2018

KMOT 201954Z 03007KT 10SM SCT055 26/11 A3005 RMK AO2 SLP169 T02610106
KMOT 201854Z VRB06KT 10SM SCT047 26/11 A3005 RMK AO2 SLP171 T02560111
KMOT 201754Z 01009G16KT 10SM BKN045 26/13 A3005 RMK AO2 SLP169 T02560128 10256 20150 53002
KMOT 201654Z 02011KT 350V050 10SM BKN033 24/13 A3004 RMK AO2 SLP169 T02390133
KMOT 201649Z 01011G16KT 10SM BKN033 23/13 A3004 RMK AO2
KMOT 201554Z 36013KT 10SM BKN024 22/14 A3004 RMK AO2 SLP168 T02220144
KMOT 201541Z 35010KT 10SM BKN024 23/14 A3004 RMK AO2 T02280144
KMOT 201454Z 34008KT 10SM CLR 21/16 A3004 RMK AO2 SLP168 T02110156 51010
KMOT 201354Z 35007KT 10SM CLR 19/15 A3004 RMK AO2 SLP168 T01890150
KMOT 201254Z 34007KT 10SM CLR 17/14 A3003 RMK AO2 SLP163 T01670139
KMOT 201154Z 33008KT 10SM CLR 15/13 A3001 RMK AO2 SLP155 70004 T01500133 10178 20150 52013
KMOT 201054Z AUTO 30006KT 10SM SCT040 15/13 A3000 RMK AO2 SLP151 T01500133
KMOT 200954Z AUTO 33006KT 10SM BKN034 16/14 A2998 RMK AO2 SLP145 T01560144
KMOT 200854Z AUTO 32007KT 10SM CLR 16/14 A2997 RMK AO2 SLP140 T01560144 53008
KMOT 200812Z AUTO 34006KT 10SM FEW022 16/15 A2996 RMK AO2 T01610150
KMOT 200754Z AUTO 33008KT 10SM BKN022 17/16 A2996 RMK AO2 SLP137 T01670156
KMOT 200741Z AUTO 33008KT 10SM BKN021 17/16 A2996 RMK AO2 T01720156
KMOT 200654Z AUTO 33009KT 10SM FEW019 17/16 A2995 RMK AO2 SLP133 T01720156
KMOT 200554Z AUTO 34006KT 10SM FEW020 17/16 A2994 RMK AO2 SLP133 60004 T01720156 10306 20172 403220172 51016
KMOT 200454Z AUTO 34008KT 10SM CLR 18/17 A2994 RMK AO2 SLP130 T01830167
KMOT 200354Z AUTO 35004KT 10SM FEW020 SCT043 BKN055 19/17 A2993 RMK AO2 SLP130 T01890172
KMOT 200254Z 32007KT 10SM CLR 20/18 A2989 RMK AO2 SLP115 60004 T02000178 51026
KMOT 200154Z 32010KT 10SM BKN100 BKN120 21/18 A2986 RMK AO2 PK WND 31026/0055 LTG DSNT E-S RAB07E53 TSB07E35 SLP105 P0004 T02060178
KMOT 200141Z 30008KT 10SM -RA BKN100 OVC110 21/17 A2986 RMK AO2 PK WND 31026/0055 LTG DSNT E AND S RAB07 TSB07E35 P0004 T02060172
KMOT 200113Z 27014G25KT 7SM TSRA FEW037 BKN075 OVC100 20/17 A2987 RMK AO2 PK WND 31026/0055 LTG DSNT ALQDS RAB07 TSB07 P0002 T02000167
KMOT 200054Z 31020G26KT 10SM VCTS SCT050 SCT095 26/16 A2986 RMK AO2 PK WND 31026/0054 LTG DSNT ALQDS SLP103 T02560161
KMOT 200044Z 34013KT 10SM VCTS FEW090 26/16 A2984 RMK AO2 LTG DSNT W-N T02560161
KMOT 192354Z 32013G19KT 10SM CLR 31/13 A2981 RMK AO2 LTG DSNT N AND NW SLP085 T03060128 10322 20294 58001
KMOT 192254Z 31008KT 10SM CLR 31/13 A2981 RMK AO2 SLP084 T03110128
KMOT 192154Z 29010G15KT 10SM FEW065 31/12 A2982 RMK AO2 SLP088 T03060122
KMOT 192054Z 31010KT 10SM FEW070 FEW090 32/12 A2982 RMK AO2 SLP085 T03170122 58007
KMOT 191954Z 31008KT 10SM CLR 31/12 A2983 RMK AO2 SLP091 T03110122
KMOT 191854Z 00000KT 10SM CLR 30/12 A2983 RMK AO2 SLP092 T03000122
KMOT 191754Z 31008KT 10SM CLR 29/13 A2984 RMK AO2 SLP093 T02940128 10294 20206 50007
KMOT 191654Z 32011KT 10SM CLR 28/13 A2984 RMK AO2 SLP094 T02780133
KMOT 191554Z 27009KT 10SM CLR 26/14 A2983 RMK AO2 SLP092 T02560144
KMOT 191454Z VRB03KT 10SM CLR 26/15 A2982 RMK AO2 SLP086 T02610150 58005
KMOT 191354Z 29005KT 10SM CLR 23/16 A2982 RMK AO2 SLP090 T02280156
KMOT 191254Z 28005KT 10SM CLR 21/15 A2983 RMK AO2 SLP094 T02060150
KMOT 191154Z 26004KT 10SM CLR 21/16 A2983 RMK AO2 SLP092 T02060156 10222 20194 51003
KMOT 191054Z AUTO 00000KT 10SM BKN110 19/16 A2982 RMK AO2 SLP091 T01940161
KMOT 190954Z AUTO 19004KT 10SM OVC095 21/17 A2983 RMK AO2 SLP092 T02060167
KMOT 190854Z AUTO 23009KT 10SM CLR 21/17 A2982 RMK AO2 SLP088 T02110167 55011